Time;durP1;ratioP1;P1;durP2;ratioP2;P2;SDS_P1;SDS_P2;PMS_P1;PMS_P2;Temp;Humidity;BMP_temperature;BMP_pressure;BME280_temperature;BME280_humidity;BME280_pressure;Samples;Min_cycle;Max_cycle;Signal;HPM_P1;HPM_P2
2023/04/16 00:01:22;;;;;;;;;;;6.40;99.90;;;;;;4987091;28;19948;-71
2023/04/16 00:03:47;;;;;;;;;;;6.40;99.90;;;;;;5001538;28;19963;-71
2023/04/16 00:06:13;;;;;;;;;;;6.40;99.90;;;;;;5004013;28;19913;-71
2023/04/16 00:08:39;;;;;;;;;;;6.40;99.90;;;;;;5006095;28;19910;-71
2023/04/16 00:11:06;;;;;;;;;;;6.50;99.90;;;;;;5004023;28;19913;-72
2023/04/16 00:13:32;;;;;;;;;;;6.50;99.90;;;;;;5000018;28;19909;-72
2023/04/16 00:15:58;;;;;;;;;;;6.50;99.90;;;;;;5002285;28;19909;-71
2023/04/16 00:18:23;;;;;;;;;;;6.50;99.90;;;;;;5011652;28;20294;-72
2023/04/16 00:20:49;;;;;;;;;;;6.60;99.90;;;;;;5000720;28;20332;-71
2023/04/16 00:23:15;;;;;;;;;;;6.60;99.90;;;;;;5000191;28;20297;-72
2023/04/16 00:25:41;;;;;;;;;;;6.60;99.90;;;;;;4990883;28;19917;-71
2023/04/16 00:28:07;;;;;;;;;;;6.50;99.90;;;;;;5005697;28;19920;-71
2023/04/16 00:30:33;;;;;;;;;;;6.50;99.90;;;;;;4993589;28;20351;-71
2023/04/16 00:32:59;;;;;;;;;;;6.40;99.90;;;;;;5008619;28;19959;-71
2023/04/16 00:35:25;;;;;;;;;;;6.40;99.90;;;;;;4988177;28;20474;-72
2023/04/16 00:37:50;;;;;;;;;;;6.30;99.90;;;;;;5006805;28;20294;-72
2023/04/16 00:40:16;;;;;;;;;;;6.20;99.90;;;;;;5004317;28;19960;-71
2023/04/16 00:42:41;;;;;;;;;;;6.20;99.90;;;;;;5007797;28;20261;-71
2023/04/16 00:45:07;;;;;;;;;;;6.10;99.90;;;;;;4992946;28;19905;-72
2023/04/16 00:47:33;;;;;;;;;;;6.00;99.90;;;;;;4986789;28;19920;-71
2023/04/16 00:50:00;;;;;;;;;;;5.90;99.90;;;;;;5008352;28;19906;-72
2023/04/16 00:52:26;;;;;;;;;;;5.80;99.90;;;;;;4987356;28;19941;-71
2023/04/16 00:54:52;;;;;;;;;;;5.70;99.90;;;;;;4992686;28;19909;-71
2023/04/16 00:57:19;;;;;;;;;;;5.60;99.90;;;;;;5003287;28;19912;-72
2023/04/16 00:59:45;;;;;;;;;;;5.50;99.90;;;;;;5008456;28;19905;-71
2023/04/16 01:02:11;;;;;;;;;;;5.50;99.90;;;;;;5007224;28;19960;-71
2023/04/16 01:04:37;;;;;;;;;;;5.40;99.90;;;;;;4985741;28;19995;-71
2023/04/16 01:07:02;;;;;;;;;;;5.40;99.90;;;;;;5011957;28;19917;-71
2023/04/16 01:09:28;;;;;;;;;;;5.40;99.90;;;;;;4987835;28;20171;-72
2023/04/16 01:11:54;;;;;;;;;;;5.30;99.90;;;;;;5000016;28;19920;-72
2023/04/16 01:14:20;;;;;;;;;;;5.30;99.90;;;;;;5008973;28;19959;-72
2023/04/16 01:16:45;;;;;;;;;;;5.30;99.90;;;;;;4989102;28;19913;-71
2023/04/16 01:19:11;;;;;;;;;;;5.20;99.90;;;;;;5010505;28;19960;-72
2023/04/16 01:21:36;;;;;;;;;;;5.20;99.90;;;;;;4989940;28;19943;-72
2023/04/16 01:24:03;;;;;;;;;;;5.10;99.90;;;;;;4984761;28;19971;-71
2023/04/16 01:26:29;;;;;;;;;;;5.00;99.90;;;;;;5000572;28;20019;-71
2023/04/16 01:28:55;;;;;;;;;;;4.90;99.90;;;;;;5004549;28;19984;-71
2023/04/16 01:31:20;;;;;;;;;;;4.90;99.90;;;;;;5005176;28;19916;-71
2023/04/16 01:33:46;;;;;;;;;;;4.80;99.90;;;;;;5009549;28;19914;-72
2023/04/16 01:36:11;;;;;;;;;;;4.70;99.90;;;;;;5008828;28;20924;-72
2023/04/16 01:38:37;;;;;;;;;;;4.60;99.90;;;;;;4993173;28;20251;-71
2023/04/16 01:41:02;;;;;;;;;;;4.60;99.90;;;;;;5008479;28;19913;-71
2023/04/16 01:43:28;;;;;;;;;;;4.70;99.90;;;;;;5015198;28;19913;-71
2023/04/16 01:46:06;;;;;;;;;;;4.70;99.90;;;;;;5009694;28;19917;-71
2023/04/16 01:48:32;;;;;;;;;;;4.80;99.90;;;;;;5012431;28;20424;-71
2023/04/16 01:50:59;;;;;;;;;;;4.90;99.90;;;;;;4987694;28;19996;-71
2023/04/16 01:53:25;;;;;;;;;;;4.90;99.90;;;;;;4988741;28;19909;-71
2023/04/16 01:55:51;;;;;;;;;;;5.00;99.90;;;;;;5009890;28;20013;-71
2023/04/16 01:58:16;;;;;;;;;;;5.00;99.90;;;;;;5008492;28;20023;-70
2023/04/16 02:00:42;;;;;;;;;;;5.10;99.90;;;;;;5012123;28;19928;-71
2023/04/16 02:03:08;;;;;;;;;;;5.10;99.90;;;;;;5008083;28;20746;-71
2023/04/16 02:05:34;;;;;;;;;;;5.10;99.90;;;;;;5004650;28;19923;-71
2023/04/16 02:07:59;;;;;;;;;;;5.10;99.90;;;;;;5009286;28;19913;-70
2023/04/16 02:10:25;;;;;;;;;;;5.00;99.90;;;;;;5006135;28;20371;-71
2023/04/16 02:12:51;;;;;;;;;;;4.90;99.90;;;;;;5000180;28;19924;-71
2023/04/16 02:15:17;;;;;;;;;;;4.90;99.90;;;;;;5008707;28;19916;-71
2023/04/16 02:17:43;;;;;;;;;;;4.80;99.90;;;;;;5008026;28;19905;-72
2023/04/16 02:20:09;;;;;;;;;;;4.80;99.90;;;;;;5011925;28;19911;-71
2023/04/16 02:22:35;;;;;;;;;;;4.70;99.90;;;;;;5004792;28;19920;-71
2023/04/16 02:25:00;;;;;;;;;;;4.70;99.90;;;;;;5014142;28;19913;-71
2023/04/16 02:27:26;;;;;;;;;;;4.60;99.90;;;;;;5008067;28;20002;-71
2023/04/16 02:29:51;;;;;;;;;;;4.50;99.90;;;;;;5015072;28;19936;-71
2023/04/16 02:32:17;;;;;;;;;;;4.50;99.90;;;;;;4996446;28;19912;-71
2023/04/16 02:34:43;;;;;;;;;;;4.50;99.90;;;;;;5009129;28;19909;-71
2023/04/16 02:37:09;;;;;;;;;;;4.50;99.90;;;;;;5006911;28;19928;-71
2023/04/16 02:39:34;;;;;;;;;;;4.60;99.90;;;;;;4984861;28;19910;-71
2023/04/16 02:42:01;;;;;;;;;;;4.70;99.90;;;;;;4990634;28;19956;-71
2023/04/16 02:44:26;;;;;;;;;;;4.80;99.90;;;;;;5006279;28;20012;-71
2023/04/16 02:46:52;;;;;;;;;;;4.80;99.90;;;;;;4991312;28;19919;-71
2023/04/16 02:49:18;;;;;;;;;;;4.90;99.90;;;;;;4987863;28;20382;-72
2023/04/16 02:51:43;;;;;;;;;;;4.90;99.90;;;;;;5009990;28;19959;-71
2023/04/16 02:54:09;;;;;;;;;;;5.00;99.90;;;;;;5013746;28;19936;-71
2023/04/16 02:56:35;;;;;;;;;;;5.00;99.90;;;;;;4990164;28;20335;-71
2023/04/16 02:59:01;;;;;;;;;;;5.10;99.90;;;;;;4991049;28;19913;-71
2023/04/16 03:01:27;;;;;;;;;;;5.10;99.90;;;;;;5004917;28;19919;-72
2023/04/16 03:03:53;;;;;;;;;;;5.10;99.90;;;;;;5008654;28;19987;-72
2023/04/16 03:06:18;;;;;;;;;;;5.10;99.90;;;;;;4988882;28;19913;-71
2023/04/16 03:08:44;;;;;;;;;;;5.00;99.90;;;;;;5004002;28;19949;-71
2023/04/16 03:11:10;;;;;;;;;;;5.00;99.90;;;;;;5000605;28;20099;-71
2023/04/16 03:13:35;;;;;;;;;;;4.90;99.90;;;;;;5003319;28;19912;-71
2023/04/16 03:16:01;;;;;;;;;;;4.90;99.90;;;;;;5005855;28;21332;-72
2023/04/16 03:18:26;;;;;;;;;;;4.80;99.90;;;;;;5004408;28;19908;-71
2023/04/16 03:20:52;;;;;;;;;;;4.80;99.90;;;;;;5005052;28;21199;-71
2023/04/16 03:23:18;;;;;;;;;;;4.90;99.90;;;;;;5004245;28;20334;-71
2023/04/16 03:25:45;;;;;;;;;;;5.00;99.90;;;;;;5005076;28;20022;-71
2023/04/16 03:28:11;;;;;;;;;;;5.10;99.90;;;;;;5006026;28;19909;-71
2023/04/16 03:30:38;;;;;;;;;;;5.30;99.90;;;;;;5010837;28;19916;-71
2023/04/16 03:33:03;;;;;;;;;;;5.40;99.90;;;;;;5007201;28;20374;-71
2023/04/16 03:35:29;;;;;;;;;;;5.50;99.90;;;;;;5005033;28;19905;-71
2023/04/16 03:37:54;;;;;;;;;;;5.50;99.90;;;;;;4984893;28;19924;-71
2023/04/16 03:40:20;;;;;;;;;;;5.70;99.90;;;;;;5008808;28;19909;-71
2023/04/16 03:42:46;;;;;;;;;;;5.80;99.90;;;;;;5005022;28;19910;-71
2023/04/16 03:45:11;;;;;;;;;;;5.80;99.90;;;;;;5010223;28;19945;-71
2023/04/16 03:47:37;;;;;;;;;;;5.90;99.90;;;;;;5010757;28;20482;-71
2023/04/16 03:50:02;;;;;;;;;;;5.90;99.90;;;;;;5009735;28;19913;-71
2023/04/16 03:52:28;;;;;;;;;;;6.00;99.90;;;;;;5006580;28;19913;-71
2023/04/16 03:54:53;;;;;;;;;;;6.10;99.90;;;;;;5009432;28;20004;-71
2023/04/16 03:57:19;;;;;;;;;;;6.20;99.90;;;;;;5007445;28;20282;-71
2023/04/16 03:59:45;;;;;;;;;;;6.20;99.90;;;;;;5006131;28;20275;-71
2023/04/16 04:02:10;;;;;;;;;;;6.30;99.90;;;;;;5004156;28;19948;-71
2023/04/16 04:04:36;;;;;;;;;;;6.40;99.90;;;;;;5008253;28;20019;-71
2023/04/16 04:07:02;;;;;;;;;;;6.40;99.90;;;;;;5007716;28;21245;-71
2023/04/16 04:09:28;;;;;;;;;;;6.40;99.90;;;;;;4992458;28;19906;-70
2023/04/16 04:11:53;;;;;;;;;;;6.40;99.90;;;;;;4987088;28;19913;-72
2023/04/16 04:14:19;;;;;;;;;;;6.40;99.90;;;;;;4997096;28;20358;-71
2023/04/16 04:16:45;;;;;;;;;;;6.40;99.90;;;;;;5009351;28;19992;-71
2023/04/16 04:19:10;;;;;;;;;;;6.40;99.90;;;;;;5003877;28;19993;-71
2023/04/16 04:21:36;;;;;;;;;;;6.40;99.90;;;;;;4991411;28;19955;-71
2023/04/16 04:24:01;;;;;;;;;;;6.40;99.90;;;;;;5006958;28;20106;-71
2023/04/16 04:26:27;;;;;;;;;;;6.50;99.90;;;;;;5004392;28;20274;-71
2023/04/16 04:28:52;;;;;;;;;;;6.50;99.90;;;;;;4984378;28;19952;-72
2023/04/16 04:31:18;;;;;;;;;;;6.50;99.90;;;;;;5011508;28;19905;-72
2023/04/16 04:33:43;;;;;;;;;;;6.50;99.90;;;;;;5002999;28;19916;-71
2023/04/16 04:36:10;;;;;;;;;;;6.50;99.90;;;;;;5007168;28;20004;-71
2023/04/16 04:38:36;;;;;;;;;;;6.40;99.90;;;;;;5004449;28;19917;-71
2023/04/16 04:41:01;;;;;;;;;;;6.40;99.90;;;;;;5004500;28;19919;-71
2023/04/16 04:43:27;;;;;;;;;;;6.40;99.90;;;;;;4983943;28;19936;-72
2023/04/16 04:45:53;;;;;;;;;;;6.40;99.90;;;;;;4985362;28;19913;-72
2023/04/16 04:48:18;;;;;;;;;;;6.40;99.90;;;;;;5002734;28;19909;-72
2023/04/16 04:50:44;;;;;;;;;;;6.40;99.90;;;;;;4990854;28;19909;-71
2023/04/16 04:53:10;;;;;;;;;;;6.50;99.90;;;;;;5007039;28;19910;-71
2023/04/16 04:55:36;;;;;;;;;;;6.60;99.90;;;;;;5003767;28;19924;-71
2023/04/16 04:58:02;;;;;;;;;;;6.70;99.90;;;;;;5006731;28;19912;-72
2023/04/16 05:00:28;;;;;;;;;;;6.80;99.90;;;;;;5013368;28;20374;-71
2023/04/16 05:02:53;;;;;;;;;;;6.80;99.90;;;;;;5009372;28;19924;-71
2023/04/16 05:05:19;;;;;;;;;;;6.80;99.90;;;;;;4992269;28;19913;-71
2023/04/16 05:07:45;;;;;;;;;;;6.80;99.90;;;;;;5004148;28;20002;-71
2023/04/16 05:10:11;;;;;;;;;;;6.90;99.90;;;;;;5006256;28;19917;-71
2023/04/16 05:12:36;;;;;;;;;;;6.90;99.90;;;;;;5004593;28;19914;-71
2023/04/16 05:15:03;;;;;;;;;;;6.90;99.90;;;;;;5005239;28;20267;-71
2023/04/16 05:17:28;;;;;;;;;;;6.90;99.90;;;;;;5008022;28;20355;-72
2023/04/16 05:19:54;;;;;;;;;;;7.00;99.90;;;;;;5009331;28;19913;-71
2023/04/16 05:22:20;;;;;;;;;;;6.90;99.90;;;;;;5005273;28;19913;-71
2023/04/16 05:24:45;;;;;;;;;;;6.90;99.90;;;;;;5013787;28;19909;-71
2023/04/16 05:27:11;;;;;;;;;;;7.00;99.90;;;;;;5008410;28;20351;-71
2023/04/16 05:29:36;;;;;;;;;;;6.90;99.90;;;;;;4985515;28;20320;-72
2023/04/16 05:32:02;;;;;;;;;;;7.00;99.90;;;;;;5008324;28;19909;-71
2023/04/16 05:34:28;;;;;;;;;;;7.00;99.90;;;;;;5003605;28;19909;-72
2023/04/16 05:36:53;;;;;;;;;;;7.00;99.90;;;;;;4988141;28;19917;-70
2023/04/16 05:39:20;;;;;;;;;;;7.10;99.90;;;;;;5008486;28;19944;-71
2023/04/16 05:41:45;;;;;;;;;;;7.30;99.90;;;;;;5000562;28;19912;-72
2023/04/16 05:44:11;;;;;;;;;;;7.60;99.90;;;;;;5000038;28;19913;-72
2023/04/16 05:46:37;;;;;;;;;;;7.70;99.90;;;;;;4988848;28;19953;-71
2023/04/16 05:49:04;;;;;;;;;;;7.80;99.90;;;;;;5007417;28;19967;-71
2023/04/16 05:51:31;;;;;;;;;;;7.80;99.90;;;;;;4988227;28;19960;-72
2023/04/16 05:53:56;;;;;;;;;;;7.90;99.90;;;;;;4985664;28;19936;-72
2023/04/16 05:56:24;;;;;;;;;;;7.80;99.90;;;;;;5001977;28;19913;-71
2023/04/16 05:58:49;;;;;;;;;;;7.50;99.90;;;;;;5004393;28;19913;-71
2023/04/16 06:01:15;;;;;;;;;;;7.40;99.90;;;;;;5001455;28;19906;-71
2023/04/16 06:03:42;;;;;;;;;;;7.40;99.90;;;;;;5001371;28;20474;-71
2023/04/16 06:06:08;;;;;;;;;;;7.50;99.90;;;;;;4997390;28;20874;-71
2023/04/16 06:08:33;;;;;;;;;;;7.60;99.90;;;;;;4990016;28;19919;-72
2023/04/16 06:10:59;;;;;;;;;;;8.00;99.90;;;;;;5003728;28;19909;-71
2023/04/16 06:13:24;;;;;;;;;;;8.00;99.90;;;;;;5002612;28;19909;-71
2023/04/16 06:15:50;;;;;;;;;;;8.10;99.90;;;;;;5005219;28;19910;-71
2023/04/16 06:18:15;;;;;;;;;;;8.30;99.90;;;;;;4985826;28;20339;-71
2023/04/16 06:20:41;;;;;;;;;;;8.60;99.90;;;;;;4990248;28;19915;-71
2023/04/16 06:23:06;;;;;;;;;;;9.00;99.90;;;;;;5006783;28;19913;-72
2023/04/16 06:25:32;;;;;;;;;;;9.40;99.90;;;;;;5007282;28;20004;-72
2023/04/16 06:27:57;;;;;;;;;;;9.80;99.90;;;;;;5012846;28;19905;-71
2023/04/16 06:30:23;;;;;;;;;;;9.90;99.90;;;;;;5008467;28;19994;-72
2023/04/16 06:32:49;;;;;;;;;;;10.10;99.90;;;;;;5007303;28;19913;-72
2023/04/16 06:35:14;;;;;;;;;;;10.40;99.90;;;;;;4994870;28;20246;-71
2023/04/16 06:37:40;;;;;;;;;;;10.70;99.90;;;;;;5000610;28;19917;-72
2023/04/16 06:40:06;;;;;;;;;;;10.80;99.90;;;;;;4986551;28;20260;-72
2023/04/16 06:42:32;;;;;;;;;;;11.00;99.90;;;;;;5012181;28;19920;-72
2023/04/16 06:44:57;;;;;;;;;;;11.00;99.90;;;;;;4984357;28;19981;-72
2023/04/16 06:47:23;;;;;;;;;;;11.10;99.90;;;;;;5006327;28;20099;-72
2023/04/16 06:49:48;;;;;;;;;;;10.90;99.90;;;;;;4986711;28;19971;-72
2023/04/16 06:52:14;;;;;;;;;;;11.00;99.90;;;;;;5007888;28;19908;-72
2023/04/16 06:54:40;;;;;;;;;;;11.20;99.90;;;;;;5008782;28;19905;-72
2023/04/16 06:57:05;;;;;;;;;;;11.40;99.90;;;;;;4996019;28;19976;-72
2023/04/16 06:59:31;;;;;;;;;;;11.60;99.90;;;;;;5008397;28;20335;-72
2023/04/16 07:01:56;;;;;;;;;;;11.60;99.90;;;;;;5002678;28;19913;-72
2023/04/16 07:04:23;;;;;;;;;;;11.60;99.90;;;;;;4998818;28;20371;-72
2023/04/16 07:06:48;;;;;;;;;;;12.00;99.90;;;;;;5005315;28;19916;-72
2023/04/16 07:09:14;;;;;;;;;;;12.40;99.90;;;;;;5004247;28;19915;-71
2023/04/16 07:11:40;;;;;;;;;;;12.90;99.90;;;;;;5005536;28;20404;-72
2023/04/16 07:14:06;;;;;;;;;;;13.10;99.90;;;;;;5001534;28;19913;-71
2023/04/16 07:16:31;;;;;;;;;;;12.90;99.90;;;;;;5003975;28;19920;-72
2023/04/16 07:18:57;;;;;;;;;;;13.10;99.90;;;;;;5006428;28;20714;-72
2023/04/16 07:21:22;;;;;;;;;;;14.40;99.90;;;;;;5009775;28;19915;-72
2023/04/16 07:23:48;;;;;;;;;;;15.80;99.90;;;;;;5004550;28;20270;-73
2023/04/16 07:26:14;;;;;;;;;;;16.30;99.90;;;;;;4993772;28;20024;-72
2023/04/16 07:28:39;;;;;;;;;;;16.50;99.90;;;;;;5006441;28;20589;-72
2023/04/16 07:31:05;;;;;;;;;;;16.80;99.50;;;;;;4987667;28;19933;-72
2023/04/16 07:33:30;;;;;;;;;;;16.20;99.00;;;;;;4998983;28;19909;-72
2023/04/16 07:35:56;;;;;;;;;;;15.80;99.60;;;;;;5012988;28;19959;-71
2023/04/16 07:38:21;;;;;;;;;;;15.70;99.90;;;;;;5002951;28;19917;-72
2023/04/16 07:40:47;;;;;;;;;;;15.20;99.90;;;;;;5009687;28;20403;-71
2023/04/16 07:43:14;;;;;;;;;;;14.50;99.90;;;;;;5008801;28;19996;-72
2023/04/16 07:45:39;;;;;;;;;;;14.50;99.90;;;;;;4999313;28;19916;-72
2023/04/16 07:48:05;;;;;;;;;;;15.00;99.90;;;;;;5005945;28;19913;-72
2023/04/16 07:50:30;;;;;;;;;;;15.60;99.90;;;;;;5008882;28;20251;-71
2023/04/16 07:52:56;;;;;;;;;;;15.80;99.00;;;;;;5009312;28;19913;-72
2023/04/16 07:55:22;;;;;;;;;;;15.20;99.90;;;;;;5006999;28;19905;-72
2023/04/16 07:57:47;;;;;;;;;;;15.20;99.90;;;;;;4999287;28;19999;-71
2023/04/16 08:00:13;;;;;;;;;;;14.80;99.90;;;;;;5007426;28;19996;-72
2023/04/16 08:02:38;;;;;;;;;;;14.20;99.90;;;;;;5005175;28;20141;-72
2023/04/16 08:05:05;;;;;;;;;;;14.20;99.90;;;;;;5011803;28;20570;-71
2023/04/16 08:07:32;;;;;;;;;;;14.00;99.90;;;;;;4982936;28;19913;-72
2023/04/16 08:09:58;;;;;;;;;;;14.10;99.90;;;;;;4989051;28;19999;-71
2023/04/16 08:12:23;;;;;;;;;;;14.00;99.90;;;;;;5005542;28;19996;-72
2023/04/16 08:14:49;;;;;;;;;;;13.60;99.90;;;;;;4984706;28;19912;-72
2023/04/16 08:17:15;;;;;;;;;;;13.70;99.90;;;;;;4986673;28;19906;-71
2023/04/16 08:19:41;;;;;;;;;;;13.80;99.90;;;;;;5008311;28;19921;-71
2023/04/16 08:22:06;;;;;;;;;;;13.80;99.90;;;;;;5010626;28;19991;-72
2023/04/16 08:24:32;;;;;;;;;;;13.60;99.90;;;;;;5005665;28;19913;-71
2023/04/16 08:26:58;;;;;;;;;;;13.40;99.90;;;;;;5010707;28;19917;-71
2023/04/16 08:29:25;;;;;;;;;;;12.80;99.90;;;;;;5005349;28;19920;-71
2023/04/16 08:31:52;;;;;;;;;;;12.60;99.90;;;;;;5004675;28;19936;-71
2023/04/16 08:34:18;;;;;;;;;;;12.50;99.90;;;;;;5005486;28;19912;-71
2023/04/16 08:36:44;;;;;;;;;;;12.80;99.90;;;;;;4987235;28;19915;-72
2023/04/16 08:39:10;;;;;;;;;;;13.00;99.90;;;;;;5003843;28;19919;-71
2023/04/16 08:41:37;;;;;;;;;;;13.20;99.90;;;;;;4989803;28;19913;-71
2023/04/16 08:44:07;;;;;;;;;;;13.50;99.90;;;;;;5002278;28;19917;-71
2023/04/16 08:46:35;;;;;;;;;;;13.70;99.90;;;;;;5016622;28;19913;-72
2023/04/16 08:49:01;;;;;;;;;;;13.60;99.90;;;;;;5001123;28;20004;-71
2023/04/16 08:51:30;;;;;;;;;;;12.90;99.90;;;;;;4989085;28;19995;-71
2023/04/16 08:54:01;;;;;;;;;;;12.60;99.90;;;;;;4989205;28;22006;-72
2023/04/16 08:56:30;;;;;;;;;;;12.80;99.90;;;;;;5005279;28;19909;-71
2023/04/16 08:58:57;;;;;;;;;;;13.10;99.90;;;;;;4997459;28;20483;-71
2023/04/16 09:01:24;;;;;;;;;;;13.00;99.90;;;;;;5005974;28;19945;-72
2023/04/16 09:03:49;;;;;;;;;;;13.30;99.90;;;;;;4989449;28;19905;-72
2023/04/16 09:06:15;;;;;;;;;;;14.10;99.90;;;;;;5002383;28;19909;-71
2023/04/16 09:08:43;;;;;;;;;;;13.80;99.90;;;;;;4985143;28;19913;-71
2023/04/16 09:11:08;;;;;;;;;;;13.80;99.90;;;;;;5007208;28;19939;-72
2023/04/16 09:13:35;;;;;;;;;;;14.30;99.90;;;;;;4984231;28;20000;-72
2023/04/16 09:16:02;;;;;;;;;;;15.20;99.20;;;;;;5002876;28;19909;-71
2023/04/16 09:18:28;;;;;;;;;;;15.30;98.70;;;;;;5000838;28;19920;-72
2023/04/16 09:20:55;;;;;;;;;;;15.10;98.80;;;;;;5004634;28;19906;-71
2023/04/16 09:23:20;;;;;;;;;;;14.40;99.90;;;;;;5001851;28;20481;-71
2023/04/16 09:25:46;;;;;;;;;;;14.10;99.90;;;;;;5007996;28;19912;-72
2023/04/16 09:28:11;;;;;;;;;;;14.20;99.90;;;;;;5008037;28;20365;-72
2023/04/16 09:30:37;;;;;;;;;;;14.20;99.90;;;;;;5008500;28;19996;-72
2023/04/16 09:33:23;;;;;;;;;;;14.20;99.90;;;;;;4987286;28;19948;-72
2023/04/16 09:35:50;;;;;;;;;;;14.10;99.90;;;;;;4984714;28;19988;-70
2023/04/16 09:38:16;;;;;;;;;;;13.90;99.90;;;;;;4999803;28;20286;-71
2023/04/16 09:40:41;;;;;;;;;;;13.60;99.90;;;;;;5005481;28;20144;-72
2023/04/16 09:43:11;;;;;;;;;;;13.30;99.90;;;;;;4987267;28;19910;-71
2023/04/16 09:45:50;;;;;;;;;;;13.30;99.90;;;;;;5001840;28;19905;-72
2023/04/16 09:48:26;;;;;;;;;;;13.40;99.90;;;;;;5014153;28;19909;-71
2023/04/16 09:50:52;;;;;;;;;;;13.20;99.90;;;;;;4985796;28;20051;-71
2023/04/16 09:53:27;;;;;;;;;;;13.00;99.90;;;;;;4986002;28;20562;-71
2023/04/16 09:55:56;;;;;;;;;;;12.60;99.90;;;;;;5006260;28;20366;-72
2023/04/16 09:58:23;;;;;;;;;;;12.00;99.90;;;;;;5010993;28;19913;-71
2023/04/16 10:00:54;;;;;;;;;;;12.50;99.90;;;;;;5011038;28;20486;-71
2023/04/16 10:03:27;;;;;;;;;;;13.00;99.90;;;;;;5009011;28;19909;-71
2023/04/16 10:05:53;;;;;;;;;;;13.60;99.90;;;;;;5008040;28;20525;-71
2023/04/16 10:08:18;;;;;;;;;;;14.00;99.90;;;;;;4986679;28;19955;-71
2023/04/16 10:10:44;;;;;;;;;;;14.80;99.90;;;;;;5011696;28;19941;-71
2023/04/16 10:13:11;;;;;;;;;;;15.50;98.70;;;;;;5007851;28;19984;-71
2023/04/16 10:15:37;;;;;;;;;;;15.60;98.10;;;;;;5009359;28;19915;-72
2023/04/16 10:18:03;;;;;;;;;;;15.50;97.00;;;;;;5007140;28;19920;-71
2023/04/16 10:20:29;;;;;;;;;;;15.60;96.00;;;;;;5009795;28;20000;-70
2023/04/16 10:22:55;;;;;;;;;;;15.80;95.40;;;;;;5005271;28;20364;-72
2023/04/16 10:25:21;;;;;;;;;;;15.90;94.70;;;;;;5011019;28;19909;-71
2023/04/16 10:27:47;;;;;;;;;;;16.00;95.20;;;;;;5006329;28;19913;-71
2023/04/16 10:30:14;;;;;;;;;;;16.10;95.10;;;;;;4990542;28;19909;-71
2023/04/16 10:32:40;;;;;;;;;;;16.20;94.20;;;;;;5007194;28;19906;-71
2023/04/16 10:35:06;;;;;;;;;;;15.90;93.80;;;;;;5012057;28;19916;-71
2023/04/16 10:37:32;;;;;;;;;;;15.90;93.40;;;;;;5007634;28;19959;-71
2023/04/16 10:39:58;;;;;;;;;;;15.20;95.00;;;;;;5008050;28;20148;-71
2023/04/16 10:42:24;;;;;;;;;;;15.40;94.90;;;;;;5011719;28;19975;-72
2023/04/16 10:44:50;;;;;;;;;;;15.40;95.00;;;;;;5006384;28;19956;-71
2023/04/16 10:47:16;;;;;;;;;;;15.70;95.40;;;;;;5007902;28;20457;-71
2023/04/16 10:49:42;;;;;;;;;;;15.90;94.90;;;;;;4986275;28;19909;-71
2023/04/16 10:52:12;;;;;;;;;;;16.00;94.50;;;;;;5011908;28;19916;-71
2023/04/16 10:54:38;;;;;;;;;;;16.00;94.80;;;;;;5002561;28;19911;-71
2023/04/16 10:57:05;;;;;;;;;;;15.70;94.50;;;;;;5008270;28;19914;-70
2023/04/16 10:59:32;;;;;;;;;;;16.20;94.20;;;;;;4982706;28;19909;-71
2023/04/16 11:01:58;;;;;;;;;;;16.50;93.30;;;;;;5010425;28;20302;-71
2023/04/16 11:04:24;;;;;;;;;;;17.00;92.00;;;;;;4988022;28;20512;-71
2023/04/16 11:07:08;;;;;;;;;;;17.40;90.40;;;;;;5007764;28;19915;-69
2023/04/16 11:09:46;;;;;;;;;;;16.90;91.30;;;;;;5011714;28;19968;-70
2023/04/16 11:12:22;;;;;;;;;;;17.30;91.10;;;;;;5001374;28;20347;-70
2023/04/16 11:14:49;;;;;;;;;;;17.40;90.00;;;;;;5003712;28;19909;-70
2023/04/16 11:17:14;;;;;;;;;;;17.20;88.60;;;;;;4989115;28;19916;-64
2023/04/16 11:19:41;;;;;;;;;;;16.80;87.80;;;;;;5008860;28;20546;-63
2023/04/16 11:22:07;;;;;;;;;;;17.00;89.80;;;;;;5006288;28;19924;-64
2023/04/16 11:24:32;;;;;;;;;;;17.30;90.00;;;;;;5012231;28;20291;-70
2023/04/16 11:26:58;;;;;;;;;;;17.60;90.00;;;;;;5004348;28;19962;-70
2023/04/16 11:29:23;;;;;;;;;;;17.70;90.40;;;;;;5005896;28;19936;-71
2023/04/16 11:31:52;;;;;;;;;;;17.70;90.50;;;;;;5003224;28;20381;-71
2023/04/16 11:34:18;;;;;;;;;;;17.60;90.20;;;;;;5010572;28;19912;-71
2023/04/16 11:36:45;;;;;;;;;;;17.40;90.10;;;;;;4990471;28;20266;-71
2023/04/16 11:39:10;;;;;;;;;;;17.30;90.00;;;;;;5002867;28;19917;-71
2023/04/16 11:42:02;;;;;;;;;;;17.00;88.50;;;;;;5004322;28;19976;-71
2023/04/16 11:44:29;;;;;;;;;;;16.60;90.10;;;;;;5004600;28;19909;-71
2023/04/16 11:46:54;;;;;;;;;;;16.70;90.40;;;;;;5005078;28;20098;-71
2023/04/16 11:49:29;;;;;;;;;;;16.80;90.40;;;;;;5007073;28;20343;-71
2023/04/16 11:51:56;;;;;;;;;;;16.90;89.60;;;;;;4992328;28;20066;-71
2023/04/16 11:54:22;;;;;;;;;;;16.90;88.20;;;;;;5005874;28;19909;-71
2023/04/16 11:56:52;;;;;;;;;;;16.50;89.20;;;;;;5015994;28;19905;-77
2023/04/16 11:59:19;;;;;;;;;;;16.80;90.60;;;;;;4991812;28;19919;-71
2023/04/16 12:01:49;;;;;;;;;;;17.60;88.20;;;;;;5002076;28;19914;-71
2023/04/16 12:04:15;;;;;;;;;;;18.00;84.40;;;;;;5001023;28;19920;-70
2023/04/16 12:07:00;;;;;;;;;;;17.90;81.30;;;;;;4986820;28;20374;-71
2023/04/16 12:09:28;;;;;;;;;;;17.30;84.60;;;;;;5010879;28;19967;-71
2023/04/16 12:11:54;;;;;;;;;;;17.80;85.40;;;;;;4989110;28;19909;-72
2023/04/16 12:14:20;;;;;;;;;;;18.30;81.90;;;;;;5006892;28;19905;-72
2023/04/16 12:16:46;;;;;;;;;;;18.30;81.40;;;;;;5003761;28;20311;-75
2023/04/16 12:19:12;;;;;;;;;;;18.70;83.00;;;;;;5011588;28;20571;-75
2023/04/16 12:21:45;;;;;;;;;;;18.80;82.40;;;;;;5010611;28;19912;-76
2023/04/16 12:24:12;;;;;;;;;;;19.00;79.60;;;;;;5005231;28;19910;-76
2023/04/16 12:26:42;;;;;;;;;;;19.10;79.30;;;;;;5001897;28;20446;-76
2023/04/16 12:29:27;;;;;;;;;;;19.00;77.60;;;;;;4992819;28;19915;-76
2023/04/16 12:31:55;;;;;;;;;;;19.10;75.60;;;;;;4996412;28;20282;-76
2023/04/16 12:34:21;;;;;;;;;;;17.60;78.10;;;;;;5009105;28;19905;-76
2023/04/16 12:36:48;;;;;;;;;;;17.50;80.90;;;;;;4989720;28;20350;-75
2023/04/16 12:39:15;;;;;;;;;;;17.80;81.00;;;;;;4999226;28;20004;-76
2023/04/16 12:41:41;;;;;;;;;;;17.60;81.20;;;;;;4995264;28;19905;-75
2023/04/16 12:44:11;;;;;;;;;;;18.00;79.50;;;;;;4985357;28;19905;-75
2023/04/16 12:46:40;;;;;;;;;;;16.90;79.70;;;;;;4984273;28;20264;-77
2023/04/16 12:49:07;;;;;;;;;;;16.70;84.00;;;;;;5002435;28;19967;-76
2023/04/16 12:51:32;;;;;;;;;;;16.90;83.00;;;;;;4993240;28;19959;-75
2023/04/16 12:54:02;;;;;;;;;;;16.70;83.60;;;;;;4991815;28;19951;-76
2023/04/16 12:56:29;;;;;;;;;;;16.00;86.50;;;;;;5009164;28;19952;-76
2023/04/16 12:58:55;;;;;;;;;;;16.10;88.40;;;;;;5006425;28;20485;-72
2023/04/16 13:01:21;;;;;;;;;;;15.40;90.60;;;;;;5004426;28;20381;-72
2023/04/16 13:03:46;;;;;;;;;;;15.20;92.40;;;;;;5003845;28;20511;-72
2023/04/16 13:06:12;;;;;;;;;;;15.10;93.70;;;;;;5004205;28;19917;-72
2023/04/16 13:08:39;;;;;;;;;;;15.20;94.40;;;;;;5007680;28;19913;-71
2023/04/16 13:11:05;;;;;;;;;;;15.10;94.20;;;;;;4992630;28;20319;-72
2023/04/16 13:13:30;;;;;;;;;;;15.20;94.20;;;;;;4998073;28;19913;-71
2023/04/16 13:15:56;;;;;;;;;;;15.20;93.80;;;;;;5001216;28;20520;-71
2023/04/16 13:18:22;;;;;;;;;;;15.20;93.80;;;;;;5003053;28;19924;-72
2023/04/16 13:20:47;;;;;;;;;;;15.20;93.00;;;;;;5005939;28;19955;-72
2023/04/16 13:23:13;;;;;;;;;;;15.30;93.30;;;;;;5007551;28;19909;-71
2023/04/16 13:25:38;;;;;;;;;;;15.30;92.80;;;;;;5004002;28;19992;-72
2023/04/16 13:28:04;;;;;;;;;;;15.60;92.90;;;;;;5005171;28;19963;-72
2023/04/16 13:30:32;;;;;;;;;;;15.70;92.00;;;;;;5011209;28;20076;-72
2023/04/16 13:32:57;;;;;;;;;;;15.80;92.00;;;;;;5007525;28;19920;-72
2023/04/16 13:35:25;;;;;;;;;;;16.00;91.60;;;;;;5009834;28;19913;-72
2023/04/16 13:37:50;;;;;;;;;;;16.00;90.90;;;;;;4988305;28;19924;-72
2023/04/16 13:40:16;;;;;;;;;;;16.10;91.30;;;;;;5008892;28;19909;-72
2023/04/16 13:42:42;;;;;;;;;;;16.10;90.90;;;;;;5009053;28;19909;-72
2023/04/16 13:45:08;;;;;;;;;;;15.80;90.60;;;;;;5010336;28;20549;-72
2023/04/16 13:47:35;;;;;;;;;;;15.60;91.30;;;;;;4989175;28;20270;-72
2023/04/16 13:50:00;;;;;;;;;;;15.80;91.20;;;;;;4995847;28;20578;-72
2023/04/16 13:52:26;;;;;;;;;;;16.00;90.90;;;;;;5011103;28;19909;-72
2023/04/16 13:54:52;;;;;;;;;;;16.20;89.50;;;;;;5011034;28;19913;-72
2023/04/16 13:57:18;;;;;;;;;;;16.30;88.20;;;;;;5006085;28;20029;-72
2023/04/16 13:59:44;;;;;;;;;;;16.50;88.50;;;;;;5012353;28;19928;-72
2023/04/16 14:02:10;;;;;;;;;;;16.60;89.10;;;;;;5011508;28;19992;-72
2023/04/16 14:04:35;;;;;;;;;;;16.60;88.60;;;;;;5012818;28;20000;-73
2023/04/16 14:07:01;;;;;;;;;;;16.40;89.70;;;;;;5011376;28;21382;-73
2023/04/16 14:09:26;;;;;;;;;;;16.40;90.30;;;;;;5003566;28;20530;-73
2023/04/16 14:11:52;;;;;;;;;;;16.10;91.50;;;;;;4991069;28;20616;-73
2023/04/16 14:14:19;;;;;;;;;;;16.00;91.90;;;;;;5014219;28;19906;-73
2023/04/16 14:16:44;;;;;;;;;;;16.00;92.10;;;;;;5005916;28;19987;-71
2023/04/16 14:19:10;;;;;;;;;;;16.00;91.90;;;;;;4991280;28;20424;-73